Famar Intervention — J8B5444 — position and weather

sailwx.info

Track history (hours):
 
Tides and Currents Weather Stations Pressure Air Temp Water Temp Dewpoint Dewpoint Depression Visibility Wind Speed Wind Dir Waves Ship Positions

Famar Intervention

Last reported at 2017-Nov-10 06:03 UTC. Time now 2017-Nov-22 03:40 UTC.
Position S 04°57' E 011°31'.
Warning: this ship's position is 11 days out of date.

Length 53 m; draft 3.8 m.

Type: Ship. MMSI: 375277000.

Date/timePositionNaut miles runAvg speedWind from/ knotsBaromVisibWave heightAir tempDewpointWater temp
2017-Nov-10 06:03S 04°57' E 011°31'124.8
2017-Nov-10 06:00S 04°57' E 011°30'1224.4
2017-Nov-10 05:30S 05°05' E 011°20'1224.1
2017-Nov-10 05:00S 05°16' E 011°15'11 2.5
2017-Nov-10 00:42S 05°26' E 011°17'523.3
2017-Nov-10 00:30S 05°22' E 011°16'1122.8
2017-Nov-10 00:00S 05°10' E 011°16'1223.4
2017-Nov-09 23:30S 05°01' E 011°24'22 2.8
2017-Nov-09 15:44S 04°49' E 011°42'524.3
2017-Nov-09 15:30S 04°53' E 011°38'1224.4
2017-Nov-09 15:00S 04°60' E 011°28'1224.0
2017-Nov-09 14:30S 05°08' E 011°19'1223.0
2017-Nov-09 13:59S 05°19' E 011°15'  
2017-Nov-05 11:32S 05°34' E 011°09'120.1
2017-Nov-05 11:30S 05°33' E 011°09'1020.3
2017-Nov-05 11:00S 05°23' E 011°11'1020.0
2017-Nov-05 10:30S 05°13' E 011°13'919.0
2017-Nov-05 10:01S 05°05' E 011°16'1020.1
2017-Nov-05 09:30S 04°59' E 011°25'  
2017-Nov-02 14:20S 05°05' E 011°23'824.0
2017-Nov-02 14:00S 05°11' E 011°18'24 0.5
2017-Oct-31 14:57S 04°54' E 011°35'1123.8
2017-Oct-31 14:30S 05°01' E 011°26'1325.5
2017-Oct-31 14:00S 05°10' E 011°17'1325.9
2017-Oct-31 13:30S 05°22' E 011°14'1326.4
2017-Oct-31 13:00S 05°35' E 011°11'  
Track history (hours):
 
Tides and Currents Weather Stations Pressure Air Temp Water Temp Dewpoint Dewpoint Depression Visibility Wind Speed Wind Dir Waves Ship Positions

Famar Intervention

Last reported at 2017-Nov-10 06:03 UTC. Time now 2017-Nov-22 03:40 UTC.
Position S 04°57' E 011°31'.
Warning: this ship's position is 11 days out of date.

Length 53 m; draft 3.8 m.

Type: Ship. MMSI: 375277000.

Date/timePositionNaut miles runAvg speedWind from/ knotsBaromVisibWave heightAir tempDewpointWater temp
2017-Nov-10 06:03S 04°57' E 011°31'124.8
2017-Nov-10 06:00S 04°57' E 011°30'1224.4
2017-Nov-10 05:30S 05°05' E 011°20'1224.1
2017-Nov-10 05:00S 05°16' E 011°15'11 2.5
2017-Nov-10 00:42S 05°26' E 011°17'523.3
2017-Nov-10 00:30S 05°22' E 011°16'1122.8
2017-Nov-10 00:00S 05°10' E 011°16'1223.4
2017-Nov-09 23:30S 05°01' E 011°24'22 2.8
2017-Nov-09 15:44S 04°49' E 011°42'524.3
2017-Nov-09 15:30S 04°53' E 011°38'1224.4
2017-Nov-09 15:00S 04°60' E 011°28'1224.0
2017-Nov-09 14:30S 05°08' E 011°19'1223.0
2017-Nov-09 13:59S 05°19' E 011°15'  
2017-Nov-05 11:32S 05°34' E 011°09'120.1
2017-Nov-05 11:30S 05°33' E 011°09'1020.3
2017-Nov-05 11:00S 05°23' E 011°11'1020.0
2017-Nov-05 10:30S 05°13' E 011°13'919.0
2017-Nov-05 10:01S 05°05' E 011°16'1020.1
2017-Nov-05 09:30S 04°59' E 011°25'  
2017-Nov-02 14:20S 05°05' E 011°23'824.0
2017-Nov-02 14:00S 05°11' E 011°18'24 0.5
2017-Oct-31 14:57S 04°54' E 011°35'1123.8
2017-Oct-31 14:30S 05°01' E 011°26'1325.5
2017-Oct-31 14:00S 05°10' E 011°17'1325.9
2017-Oct-31 13:30S 05°22' E 011°14'1326.4
2017-Oct-31 13:00S 05°35' E 011°11'  

Dump ship's entire track history